sensor_id;sensor_type;location;lat;lon;timestamp;temperature;humidity
56725;DHT22;42608;52.776;6.968;2022-11-02T00:00:29;13.60;99.90
56725;DHT22;42608;52.776;6.968;2022-11-02T00:02:55;13.60;99.90
56725;DHT22;42608;52.776;6.968;2022-11-02T00:05:20;13.60;99.90
56725;DHT22;42608;52.776;6.968;2022-11-02T00:07:52;13.50;99.90
56725;DHT22;42608;52.776;6.968;2022-11-02T00:10:19;13.50;99.90
56725;DHT22;42608;52.776;6.968;2022-11-02T00:12:44;13.50;99.90
56725;DHT22;42608;52.776;6.968;2022-11-02T00:15:10;13.50;99.90
56725;DHT22;42608;52.776;6.968;2022-11-02T00:17:37;13.40;99.90
56725;DHT22;42608;52.776;6.968;2022-11-02T00:20:04;13.30;99.90
56725;DHT22;42608;52.776;6.968;2022-11-02T00:22:30;13.30;99.90
56725;DHT22;42608;52.776;6.968;2022-11-02T00:24:56;13.30;99.90
56725;DHT22;42608;52.776;6.968;2022-11-02T00:27:22;13.30;99.90
56725;DHT22;42608;52.776;6.968;2022-11-02T00:29:48;13.30;99.90
56725;DHT22;42608;52.776;6.968;2022-11-02T00:32:13;13.30;99.90
56725;DHT22;42608;52.776;6.968;2022-11-02T00:34:39;13.30;99.90
56725;DHT22;42608;52.776;6.968;2022-11-02T00:37:04;13.20;99.90
56725;DHT22;42608;52.776;6.968;2022-11-02T00:39:30;13.20;99.90
56725;DHT22;42608;52.776;6.968;2022-11-02T00:41:55;13.20;99.90
56725;DHT22;42608;52.776;6.968;2022-11-02T00:44:21;13.20;99.90
56725;DHT22;42608;52.776;6.968;2022-11-02T00:46:46;13.20;99.90
56725;DHT22;42608;52.776;6.968;2022-11-02T00:49:12;13.20;99.90
56725;DHT22;42608;52.776;6.968;2022-11-02T00:51:37;13.10;99.90
56725;DHT22;42608;52.776;6.968;2022-11-02T00:54:03;13.10;99.90
56725;DHT22;42608;52.776;6.968;2022-11-02T00:56:28;13.10;99.90
56725;DHT22;42608;52.776;6.968;2022-11-02T00:58:54;13.10;99.90
56725;DHT22;42608;52.776;6.968;2022-11-02T01:01:19;13.10;99.90
56725;DHT22;42608;52.776;6.968;2022-11-02T01:03:45;13.10;99.90
56725;DHT22;42608;52.776;6.968;2022-11-02T01:06:11;13.10;99.90
56725;DHT22;42608;52.776;6.968;2022-11-02T01:08:37;13.10;99.90
56725;DHT22;42608;52.776;6.968;2022-11-02T01:11:11;13.20;99.90
56725;DHT22;42608;52.776;6.968;2022-11-02T01:13:37;13.20;99.90
56725;DHT22;42608;52.776;6.968;2022-11-02T01:16:03;13.20;99.90
56725;DHT22;42608;52.776;6.968;2022-11-02T01:18:29;13.20;99.90
56725;DHT22;42608;52.776;6.968;2022-11-02T01:20:55;13.20;99.90
56725;DHT22;42608;52.776;6.968;2022-11-02T01:23:21;13.20;99.90
56725;DHT22;42608;52.776;6.968;2022-11-02T01:25:46;13.30;99.90
56725;DHT22;42608;52.776;6.968;2022-11-02T01:28:12;13.30;99.90
56725;DHT22;42608;52.776;6.968;2022-11-02T01:30:37;13.20;99.90
56725;DHT22;42608;52.776;6.968;2022-11-02T01:33:06;13.30;99.90
56725;DHT22;42608;52.776;6.968;2022-11-02T01:35:32;13.30;99.90
56725;DHT22;42608;52.776;6.968;2022-11-02T01:37:57;13.30;99.90
56725;DHT22;42608;52.776;6.968;2022-11-02T01:40:23;13.30;99.90
56725;DHT22;42608;52.776;6.968;2022-11-02T01:42:48;13.30;99.90
56725;DHT22;42608;52.776;6.968;2022-11-02T01:45:14;13.30;99.90
56725;DHT22;42608;52.776;6.968;2022-11-02T01:47:41;13.30;99.90
56725;DHT22;42608;52.776;6.968;2022-11-02T01:50:18;13.40;99.90
56725;DHT22;42608;52.776;6.968;2022-11-02T01:52:45;13.30;99.90
56725;DHT22;42608;52.776;6.968;2022-11-02T01:55:12;13.40;99.90
56725;DHT22;42608;52.776;6.968;2022-11-02T01:57:39;13.30;99.90
56725;DHT22;42608;52.776;6.968;2022-11-02T02:00:07;13.40;99.90
56725;DHT22;42608;52.776;6.968;2022-11-02T02:02:34;13.40;99.90
56725;DHT22;42608;52.776;6.968;2022-11-02T02:05:05;13.40;99.90
56725;DHT22;42608;52.776;6.968;2022-11-02T02:07:32;13.40;99.90
56725;DHT22;42608;52.776;6.968;2022-11-02T02:09:57;13.40;99.90
56725;DHT22;42608;52.776;6.968;2022-11-02T02:12:24;13.40;99.90
56725;DHT22;42608;52.776;6.968;2022-11-02T02:14:50;13.40;99.90
56725;DHT22;42608;52.776;6.968;2022-11-02T02:17:23;13.40;99.90
56725;DHT22;42608;52.776;6.968;2022-11-02T02:28:10;13.40;99.90
56725;DHT22;42608;52.776;6.968;2022-11-02T02:30:42;13.30;99.90
56725;DHT22;42608;52.776;6.968;2022-11-02T02:33:12;13.40;99.90
56725;DHT22;42608;52.776;6.968;2022-11-02T02:35:39;13.30;99.90
56725;DHT22;42608;52.776;6.968;2022-11-02T02:38:08;13.30;99.90
56725;DHT22;42608;52.776;6.968;2022-11-02T02:40:48;13.30;99.90
56725;DHT22;42608;52.776;6.968;2022-11-02T02:43:35;13.30;99.90
56725;DHT22;42608;52.776;6.968;2022-11-02T02:46:04;13.30;99.90
56725;DHT22;42608;52.776;6.968;2022-11-02T02:48:31;13.20;99.90
56725;DHT22;42608;52.776;6.968;2022-11-02T02:51:00;13.20;99.90
56725;DHT22;42608;52.776;6.968;2022-11-02T02:53:27;13.20;99.90
56725;DHT22;42608;52.776;6.968;2022-11-02T02:55:54;13.10;99.90
56725;DHT22;42608;52.776;6.968;2022-11-02T02:58:23;13.10;99.90
56725;DHT22;42608;52.776;6.968;2022-11-02T03:00:50;13.10;99.90
56725;DHT22;42608;52.776;6.968;2022-11-02T03:03:21;13.10;99.90
56725;DHT22;42608;52.776;6.968;2022-11-02T03:06:02;13.00;99.90
56725;DHT22;42608;52.776;6.968;2022-11-02T03:08:28;13.00;99.90
56725;DHT22;42608;52.776;6.968;2022-11-02T03:11:11;13.00;99.90
56725;DHT22;42608;52.776;6.968;2022-11-02T03:13:43;13.00;99.90
56725;DHT22;42608;52.776;6.968;2022-11-02T03:18:51;13.00;99.90
56725;DHT22;42608;52.776;6.968;2022-11-02T03:26:32;12.80;99.90
56725;DHT22;42608;52.776;6.968;2022-11-02T03:34:37;12.70;99.90
56725;DHT22;42608;52.776;6.968;2022-11-02T03:39:40;12.60;99.90
56725;DHT22;42608;52.776;6.968;2022-11-02T03:42:06;12.60;99.90
56725;DHT22;42608;52.776;6.968;2022-11-02T03:44:35;12.50;99.90
56725;DHT22;42608;52.776;6.968;2022-11-02T03:47:02;12.40;99.90
56725;DHT22;42608;52.776;6.968;2022-11-02T03:49:28;12.40;99.90
56725;DHT22;42608;52.776;6.968;2022-11-02T03:51:54;12.30;99.90
56725;DHT22;42608;52.776;6.968;2022-11-02T03:54:36;12.30;99.90
56725;DHT22;42608;52.776;6.968;2022-11-02T03:57:03;12.30;99.90
56725;DHT22;42608;52.776;6.968;2022-11-02T03:59:30;12.20;99.90
56725;DHT22;42608;52.776;6.968;2022-11-02T04:01:56;12.20;99.90
56725;DHT22;42608;52.776;6.968;2022-11-02T04:04:22;12.10;99.90
56725;DHT22;42608;52.776;6.968;2022-11-02T04:06:47;12.10;99.90
56725;DHT22;42608;52.776;6.968;2022-11-02T04:09:13;12.10;99.90
56725;DHT22;42608;52.776;6.968;2022-11-02T04:11:39;12.00;99.90
56725;DHT22;42608;52.776;6.968;2022-11-02T04:14:23;12.00;99.90
56725;DHT22;42608;52.776;6.968;2022-11-02T04:17:09;12.00;99.90
56725;DHT22;42608;52.776;6.968;2022-11-02T04:19:54;11.90;99.90
56725;DHT22;42608;52.776;6.968;2022-11-02T04:22:20;11.90;99.90
56725;DHT22;42608;52.776;6.968;2022-11-02T04:25:05;11.90;99.90
56725;DHT22;42608;52.776;6.968;2022-11-02T04:27:40;11.90;99.90
56725;DHT22;42608;52.776;6.968;2022-11-02T04:30:06;11.80;99.90
56725;DHT22;42608;52.776;6.968;2022-11-02T04:32:38;11.80;99.90
56725;DHT22;42608;52.776;6.968;2022-11-02T04:35:23;11.80;99.90
56725;DHT22;42608;52.776;6.968;2022-11-02T04:37:49;11.70;99.90
56725;DHT22;42608;52.776;6.968;2022-11-02T04:40:34;11.70;99.90
56725;DHT22;42608;52.776;6.968;2022-11-02T04:42:59;11.70;99.90
56725;DHT22;42608;52.776;6.968;2022-11-02T04:45:25;11.70;99.90
56725;DHT22;42608;52.776;6.968;2022-11-02T04:47:50;11.70;99.90
56725;DHT22;42608;52.776;6.968;2022-11-02T04:50:16;11.70;99.90
56725;DHT22;42608;52.776;6.968;2022-11-02T04:52:42;11.70;99.90
56725;DHT22;42608;52.776;6.968;2022-11-02T04:55:07;11.70;99.90
56725;DHT22;42608;52.776;6.968;2022-11-02T04:57:33;11.80;99.90
56725;DHT22;42608;52.776;6.968;2022-11-02T04:59:59;11.80;99.90
56725;DHT22;42608;52.776;6.968;2022-11-02T05:02:25;11.80;99.90
56725;DHT22;42608;52.776;6.968;2022-11-02T05:04:51;11.80;99.90
56725;DHT22;42608;52.776;6.968;2022-11-02T05:07:16;11.80;99.90
56725;DHT22;42608;52.776;6.968;2022-11-02T05:09:42;11.80;99.90
56725;DHT22;42608;52.776;6.968;2022-11-02T05:12:07;11.90;99.90
56725;DHT22;42608;52.776;6.968;2022-11-02T05:14:33;11.90;99.90
56725;DHT22;42608;52.776;6.968;2022-11-02T05:16:59;11.90;99.90
56725;DHT22;42608;52.776;6.968;2022-11-02T05:19:24;11.90;99.90
56725;DHT22;42608;52.776;6.968;2022-11-02T05:21:50;11.80;99.90
56725;DHT22;42608;52.776;6.968;2022-11-02T05:24:15;11.80;99.90
56725;DHT22;42608;52.776;6.968;2022-11-02T05:26:41;11.80;99.90
56725;DHT22;42608;52.776;6.968;2022-11-02T05:29:06;11.90;99.90
56725;DHT22;42608;52.776;6.968;2022-11-02T05:31:32;11.90;99.90
56725;DHT22;42608;52.776;6.968;2022-11-02T05:33:58;11.80;99.90
56725;DHT22;42608;52.776;6.968;2022-11-02T05:36:23;11.80;99.90
56725;DHT22;42608;52.776;6.968;2022-11-02T05:38:52;11.90;99.90
56725;DHT22;42608;52.776;6.968;2022-11-02T05:41:18;11.90;99.90
56725;DHT22;42608;52.776;6.968;2022-11-02T05:43:44;11.80;99.90
56725;DHT22;42608;52.776;6.968;2022-11-02T05:46:09;11.80;99.90
56725;DHT22;42608;52.776;6.968;2022-11-02T05:48:35;11.90;99.90
56725;DHT22;42608;52.776;6.968;2022-11-02T05:51:01;11.90;99.90
56725;DHT22;42608;52.776;6.968;2022-11-02T05:53:28;11.80;99.90
56725;DHT22;42608;52.776;6.968;2022-11-02T05:56:01;11.80;99.90
56725;DHT22;42608;52.776;6.968;2022-11-02T05:58:26;11.70;99.90
56725;DHT22;42608;52.776;6.968;2022-11-02T06:00:52;11.70;99.90
56725;DHT22;42608;52.776;6.968;2022-11-02T06:03:18;11.60;99.90
56725;DHT22;42608;52.776;6.968;2022-11-02T06:05:43;11.50;99.90
56725;DHT22;42608;52.776;6.968;2022-11-02T06:08:09;11.50;99.90
56725;DHT22;42608;52.776;6.968;2022-11-02T06:10:35;11.50;99.90
56725;DHT22;42608;52.776;6.968;2022-11-02T06:13:01;11.40;99.90
56725;DHT22;42608;52.776;6.968;2022-11-02T06:15:28;11.50;99.90
56725;DHT22;42608;52.776;6.968;2022-11-02T06:17:53;11.40;99.90
56725;DHT22;42608;52.776;6.968;2022-11-02T06:20:19;11.40;99.90
56725;DHT22;42608;52.776;6.968;2022-11-02T06:22:45;11.40;99.90
56725;DHT22;42608;52.776;6.968;2022-11-02T06:25:11;11.40;99.90
56725;DHT22;42608;52.776;6.968;2022-11-02T06:27:36;11.40;99.90
56725;DHT22;42608;52.776;6.968;2022-11-02T06:30:02;11.40;99.90
56725;DHT22;42608;52.776;6.968;2022-11-02T06:32:28;11.40;99.90
56725;DHT22;42608;52.776;6.968;2022-11-02T06:34:54;11.40;99.90
56725;DHT22;42608;52.776;6.968;2022-11-02T06:37:19;11.40;99.90
56725;DHT22;42608;52.776;6.968;2022-11-02T06:39:45;11.40;99.90
56725;DHT22;42608;52.776;6.968;2022-11-02T06:42:10;11.40;99.90
56725;DHT22;42608;52.776;6.968;2022-11-02T06:44:36;11.40;99.90
56725;DHT22;42608;52.776;6.968;2022-11-02T06:47:01;11.40;99.90
56725;DHT22;42608;52.776;6.968;2022-11-02T06:49:27;11.40;99.90
56725;DHT22;42608;52.776;6.968;2022-11-02T06:51:52;11.40;99.90
56725;DHT22;42608;52.776;6.968;2022-11-02T06:54:18;11.40;99.90
56725;DHT22;42608;52.776;6.968;2022-11-02T06:56:43;11.40;99.90
56725;DHT22;42608;52.776;6.968;2022-11-02T06:59:09;11.40;99.90
56725;DHT22;42608;52.776;6.968;2022-11-02T07:01:35;11.40;99.90
56725;DHT22;42608;52.776;6.968;2022-11-02T07:04:00;11.30;99.90
56725;DHT22;42608;52.776;6.968;2022-11-02T07:06:26;11.30;99.90
56725;DHT22;42608;52.776;6.968;2022-11-02T07:08:51;11.30;99.90
56725;DHT22;42608;52.776;6.968;2022-11-02T07:11:17;11.40;99.90
56725;DHT22;42608;52.776;6.968;2022-11-02T07:13:43;11.40;99.90
56725;DHT22;42608;52.776;6.968;2022-11-02T07:16:08;11.30;99.90
56725;DHT22;42608;52.776;6.968;2022-11-02T07:18:34;11.30;99.90
56725;DHT22;42608;52.776;6.968;2022-11-02T07:20:59;11.30;99.90
56725;DHT22;42608;52.776;6.968;2022-11-02T07:23:26;11.30;99.90
56725;DHT22;42608;52.776;6.968;2022-11-02T07:25:52;11.30;99.90
56725;DHT22;42608;52.776;6.968;2022-11-02T07:28:17;11.30;99.90
56725;DHT22;42608;52.776;6.968;2022-11-02T07:30:43;11.30;99.90
56725;DHT22;42608;52.776;6.968;2022-11-02T07:33:09;11.30;99.90
56725;DHT22;42608;52.776;6.968;2022-11-02T07:35:34;11.40;99.90
56725;DHT22;42608;52.776;6.968;2022-11-02T07:38:01;11.40;99.90
56725;DHT22;42608;52.776;6.968;2022-11-02T07:40:27;11.50;99.90
56725;DHT22;42608;52.776;6.968;2022-11-02T07:42:53;11.50;99.90
56725;DHT22;42608;52.776;6.968;2022-11-02T07:45:20;11.60;99.90
56725;DHT22;42608;52.776;6.968;2022-11-02T07:47:46;11.70;99.90
56725;DHT22;42608;52.776;6.968;2022-11-02T07:50:12;11.70;99.90
56725;DHT22;42608;52.776;6.968;2022-11-02T07:52:51;11.80;99.90
56725;DHT22;42608;52.776;6.968;2022-11-02T07:55:18;11.80;99.90
56725;DHT22;42608;52.776;6.968;2022-11-02T07:57:51;11.80;99.90
56725;DHT22;42608;52.776;6.968;2022-11-02T08:00:17;11.90;99.90
56725;DHT22;42608;52.776;6.968;2022-11-02T08:02:42;11.90;99.90
56725;DHT22;42608;52.776;6.968;2022-11-02T08:05:08;11.90;99.90
56725;DHT22;42608;52.776;6.968;2022-11-02T08:07:33;11.90;99.90
56725;DHT22;42608;52.776;6.968;2022-11-02T08:09:59;11.90;99.90
56725;DHT22;42608;52.776;6.968;2022-11-02T08:12:25;11.90;99.90
56725;DHT22;42608;52.776;6.968;2022-11-02T08:14:50;12.00;99.90
56725;DHT22;42608;52.776;6.968;2022-11-02T08:17:16;12.00;99.90
56725;DHT22;42608;52.776;6.968;2022-11-02T08:19:42;12.00;99.90
56725;DHT22;42608;52.776;6.968;2022-11-02T08:22:07;12.00;99.90
56725;DHT22;42608;52.776;6.968;2022-11-02T08:24:33;12.00;99.90
56725;DHT22;42608;52.776;6.968;2022-11-02T08:26:58;12.00;99.90
56725;DHT22;42608;52.776;6.968;2022-11-02T08:29:24;12.00;99.90
56725;DHT22;42608;52.776;6.968;2022-11-02T08:31:50;12.10;99.90
56725;DHT22;42608;52.776;6.968;2022-11-02T08:34:16;12.00;99.90
56725;DHT22;42608;52.776;6.968;2022-11-02T08:36:41;12.10;99.90
56725;DHT22;42608;52.776;6.968;2022-11-02T08:39:07;12.10;99.90
56725;DHT22;42608;52.776;6.968;2022-11-02T08:41:32;12.20;99.90
56725;DHT22;42608;52.776;6.968;2022-11-02T08:43:58;12.20;99.90
56725;DHT22;42608;52.776;6.968;2022-11-02T08:46:24;12.20;99.90
56725;DHT22;42608;52.776;6.968;2022-11-02T08:48:50;12.30;99.90
56725;DHT22;42608;52.776;6.968;2022-11-02T08:51:15;12.30;99.90
56725;DHT22;42608;52.776;6.968;2022-11-02T08:53:41;12.20;99.90
56725;DHT22;42608;52.776;6.968;2022-11-02T08:56:06;12.20;99.90
56725;DHT22;42608;52.776;6.968;2022-11-02T08:58:32;12.20;99.90
56725;DHT22;42608;52.776;6.968;2022-11-02T09:00:58;12.20;99.90
56725;DHT22;42608;52.776;6.968;2022-11-02T09:03:23;12.10;99.90
56725;DHT22;42608;52.776;6.968;2022-11-02T09:05:49;12.20;99.90
56725;DHT22;42608;52.776;6.968;2022-11-02T09:08:15;12.20;99.90
56725;DHT22;42608;52.776;6.968;2022-11-02T09:10:42;12.20;99.90
56725;DHT22;42608;52.776;6.968;2022-11-02T09:13:09;12.20;99.90
56725;DHT22;42608;52.776;6.968;2022-11-02T09:15:35;12.20;99.90
56725;DHT22;42608;52.776;6.968;2022-11-02T09:18:00;12.30;99.90
56725;DHT22;42608;52.776;6.968;2022-11-02T09:20:26;12.30;99.90
56725;DHT22;42608;52.776;6.968;2022-11-02T09:22:52;12.30;99.90
56725;DHT22;42608;52.776;6.968;2022-11-02T09:25:18;12.40;99.90
56725;DHT22;42608;52.776;6.968;2022-11-02T09:27:43;12.50;99.90
56725;DHT22;42608;52.776;6.968;2022-11-02T09:30:09;12.40;99.90
56725;DHT22;42608;52.776;6.968;2022-11-02T09:32:35;12.50;99.90
56725;DHT22;42608;52.776;6.968;2022-11-02T09:35:10;12.50;99.90
56725;DHT22;42608;52.776;6.968;2022-11-02T09:37:36;12.50;99.90
56725;DHT22;42608;52.776;6.968;2022-11-02T09:40:03;12.50;99.90
56725;DHT22;42608;52.776;6.968;2022-11-02T09:45:13;12.50;99.90
56725;DHT22;42608;52.776;6.968;2022-11-02T09:47:57;12.50;99.90
56725;DHT22;42608;52.776;6.968;2022-11-02T09:50:28;12.50;99.90
56725;DHT22;42608;52.776;6.968;2022-11-02T09:52:58;12.60;99.90
56725;DHT22;42608;52.776;6.968;2022-11-02T09:55:29;12.60;99.90
56725;DHT22;42608;52.776;6.968;2022-11-02T09:57:59;12.60;99.90
56725;DHT22;42608;52.776;6.968;2022-11-02T10:00:26;12.60;99.90
56725;DHT22;42608;52.776;6.968;2022-11-02T10:05:24;12.70;99.90
56725;DHT22;42608;52.776;6.968;2022-11-02T10:10:33;12.80;99.90
56725;DHT22;42608;52.776;6.968;2022-11-02T10:15:47;12.90;99.90
56725;DHT22;42608;52.776;6.968;2022-11-02T10:18:16;13.00;99.90
56725;DHT22;42608;52.776;6.968;2022-11-02T10:20:45;12.90;99.90
56725;DHT22;42608;52.776;6.968;2022-11-02T10:23:14;12.90;99.90
56725;DHT22;42608;52.776;6.968;2022-11-02T10:25:41;12.90;99.90
56725;DHT22;42608;52.776;6.968;2022-11-02T10:28:20;12.90;99.90
56725;DHT22;42608;52.776;6.968;2022-11-02T10:30:48;12.90;99.90
56725;DHT22;42608;52.776;6.968;2022-11-02T10:33:14;12.90;99.90
56725;DHT22;42608;52.776;6.968;2022-11-02T10:38:34;13.00;99.90
56725;DHT22;42608;52.776;6.968;2022-11-02T10:53:35;13.40;99.90
56725;DHT22;42608;52.776;6.968;2022-11-02T10:56:11;13.30;99.90
56725;DHT22;42608;52.776;6.968;2022-11-02T10:58:39;13.30;99.90
56725;DHT22;42608;52.776;6.968;2022-11-02T11:01:07;13.30;99.90
56725;DHT22;42608;52.776;6.968;2022-11-02T11:03:33;13.30;99.90
56725;DHT22;42608;52.776;6.968;2022-11-02T11:05:59;13.30;99.90
56725;DHT22;42608;52.776;6.968;2022-11-02T11:08:34;13.30;99.90
56725;DHT22;42608;52.776;6.968;2022-11-02T11:11:20;13.50;99.90
56725;DHT22;42608;52.776;6.968;2022-11-02T11:13:56;13.50;99.90
56725;DHT22;42608;52.776;6.968;2022-11-02T11:21:43;13.70;99.90
56725;DHT22;42608;52.776;6.968;2022-11-02T11:27:13;13.90;99.90
56725;DHT22;42608;52.776;6.968;2022-11-02T11:29:44;13.90;99.90
56725;DHT22;42608;52.776;6.968;2022-11-02T11:35:06;14.00;99.90
56725;DHT22;42608;52.776;6.968;2022-11-02T11:37:32;13.90;99.90
56725;DHT22;42608;52.776;6.968;2022-11-02T11:40:02;14.00;99.90
56725;DHT22;42608;52.776;6.968;2022-11-02T11:42:30;13.90;99.90
56725;DHT22;42608;52.776;6.968;2022-11-02T11:45:19;13.80;99.90
56725;DHT22;42608;52.776;6.968;2022-11-02T11:47:42;13.70;99.90
56725;DHT22;42608;52.776;6.968;2022-11-02T11:50:14;13.60;99.90
56725;DHT22;42608;52.776;6.968;2022-11-02T11:52:40;13.70;99.90
56725;DHT22;42608;52.776;6.968;2022-11-02T11:55:22;13.70;99.90
56725;DHT22;42608;52.776;6.968;2022-11-02T12:03:29;13.80;99.90
56725;DHT22;42608;52.776;6.968;2022-11-02T12:13:47;13.70;99.90
56725;DHT22;42608;52.776;6.968;2022-11-02T12:21:13;13.80;99.90
56725;DHT22;42608;52.776;6.968;2022-11-02T12:26:13;13.80;99.90
56725;DHT22;42608;52.776;6.968;2022-11-02T12:41:02;14.00;99.90
56725;DHT22;42608;52.776;6.968;2022-11-02T12:46:09;14.00;99.90
56725;DHT22;42608;52.776;6.968;2022-11-02T12:51:11;13.80;99.90
56725;DHT22;42608;52.776;6.968;2022-11-02T12:56:06;13.80;99.90
56725;DHT22;42608;52.776;6.968;2022-11-02T12:58:33;13.80;99.90
56725;DHT22;42608;52.776;6.968;2022-11-02T13:03:40;13.70;99.90
56725;DHT22;42608;52.776;6.968;2022-11-02T13:06:08;13.80;99.90
56725;DHT22;42608;52.776;6.968;2022-11-02T13:08:37;13.80;99.90
56725;DHT22;42608;52.776;6.968;2022-11-02T13:11:05;13.80;99.90
56725;DHT22;42608;52.776;6.968;2022-11-02T13:13:33;13.80;99.90
56725;DHT22;42608;52.776;6.968;2022-11-02T13:16:01;13.90;99.90
56725;DHT22;42608;52.776;6.968;2022-11-02T13:18:32;13.90;99.90
56725;DHT22;42608;52.776;6.968;2022-11-02T13:21:01;13.90;99.90
56725;DHT22;42608;52.776;6.968;2022-11-02T13:23:30;14.00;99.90
56725;DHT22;42608;52.776;6.968;2022-11-02T13:25:58;14.10;99.90
56725;DHT22;42608;52.776;6.968;2022-11-02T13:28:29;14.10;99.90
56725;DHT22;42608;52.776;6.968;2022-11-02T13:30:55;14.20;99.90
56725;DHT22;42608;52.776;6.968;2022-11-02T13:33:40;14.20;99.90
56725;DHT22;42608;52.776;6.968;2022-11-02T13:36:08;14.20;99.90
56725;DHT22;42608;52.776;6.968;2022-11-02T13:46:39;14.10;99.90
56725;DHT22;42608;52.776;6.968;2022-11-02T13:51:50;14.10;99.90
56725;DHT22;42608;52.776;6.968;2022-11-02T13:56:42;14.10;99.90
56725;DHT22;42608;52.776;6.968;2022-11-02T13:59:08;14.10;99.90
56725;DHT22;42608;52.776;6.968;2022-11-02T14:01:37;14.10;99.90
56725;DHT22;42608;52.776;6.968;2022-11-02T14:04:04;14.10;99.90
56725;DHT22;42608;52.776;6.968;2022-11-02T14:06:31;14.10;99.90
56725;DHT22;42608;52.776;6.968;2022-11-02T14:09:02;14.00;99.90
56725;DHT22;42608;52.776;6.968;2022-11-02T14:16:39;14.00;99.90
56725;DHT22;42608;52.776;6.968;2022-11-02T14:27:05;14.10;99.90
56725;DHT22;42608;52.776;6.968;2022-11-02T14:39:56;14.10;99.90
56725;DHT22;42608;52.776;6.968;2022-11-02T14:42:31;14.10;99.90
56725;DHT22;42608;52.776;6.968;2022-11-02T14:47:27;14.00;99.90
56725;DHT22;42608;52.776;6.968;2022-11-02T14:50:00;14.00;99.90
56725;DHT22;42608;52.776;6.968;2022-11-02T14:52:34;14.00;99.90
56725;DHT22;42608;52.776;6.968;2022-11-02T14:55:05;14.00;99.90
56725;DHT22;42608;52.776;6.968;2022-11-02T14:57:42;14.00;99.90
56725;DHT22;42608;52.776;6.968;2022-11-02T15:00:18;13.90;99.90
56725;DHT22;42608;52.776;6.968;2022-11-02T15:02:45;13.90;99.90
56725;DHT22;42608;52.776;6.968;2022-11-02T15:07:54;13.80;99.90
56725;DHT22;42608;52.776;6.968;2022-11-02T15:15:41;13.70;99.90
56725;DHT22;42608;52.776;6.968;2022-11-02T15:18:21;13.70;99.90
56725;DHT22;42608;52.776;6.968;2022-11-02T15:21:20;13.60;99.90
56725;DHT22;42608;52.776;6.968;2022-11-02T15:23:43;13.60;99.90
56725;DHT22;42608;52.776;6.968;2022-11-02T15:26:11;13.60;99.90
56725;DHT22;42608;52.776;6.968;2022-11-02T15:28:39;13.60;99.90
56725;DHT22;42608;52.776;6.968;2022-11-02T15:31:12;13.50;99.90
56725;DHT22;42608;52.776;6.968;2022-11-02T15:33:43;13.50;99.90
56725;DHT22;42608;52.776;6.968;2022-11-02T15:36:14;13.40;99.90
56725;DHT22;42608;52.776;6.968;2022-11-02T15:38:41;13.40;99.90
56725;DHT22;42608;52.776;6.968;2022-11-02T15:41:15;13.30;99.90
56725;DHT22;42608;52.776;6.968;2022-11-02T15:48:52;13.20;99.90
56725;DHT22;42608;52.776;6.968;2022-11-02T16:01:38;13.00;99.90
56725;DHT22;42608;52.776;6.968;2022-11-02T16:04:04;13.00;99.90
56725;DHT22;42608;52.776;6.968;2022-11-02T16:06:32;12.90;99.90
56725;DHT22;42608;52.776;6.968;2022-11-02T16:09:00;12.90;99.90
56725;DHT22;42608;52.776;6.968;2022-11-02T16:11:26;12.80;99.90
56725;DHT22;42608;52.776;6.968;2022-11-02T16:13:51;12.80;99.90
56725;DHT22;42608;52.776;6.968;2022-11-02T16:16:17;12.80;99.90
56725;DHT22;42608;52.776;6.968;2022-11-02T16:18:46;12.70;99.90
56725;DHT22;42608;52.776;6.968;2022-11-02T16:21:14;12.70;99.90
56725;DHT22;42608;52.776;6.968;2022-11-02T16:23:40;12.60;99.90
56725;DHT22;42608;52.776;6.968;2022-11-02T16:26:07;12.60;99.90
56725;DHT22;42608;52.776;6.968;2022-11-02T16:28:37;12.60;99.90
56725;DHT22;42608;52.776;6.968;2022-11-02T16:31:04;12.50;99.90
56725;DHT22;42608;52.776;6.968;2022-11-02T16:33:33;12.50;99.90
56725;DHT22;42608;52.776;6.968;2022-11-02T16:35:59;12.40;99.90
56725;DHT22;42608;52.776;6.968;2022-11-02T16:38:25;12.40;99.90
56725;DHT22;42608;52.776;6.968;2022-11-02T16:40:52;12.30;99.90
56725;DHT22;42608;52.776;6.968;2022-11-02T16:43:18;12.30;99.90
56725;DHT22;42608;52.776;6.968;2022-11-02T16:45:44;12.20;99.90
56725;DHT22;42608;52.776;6.968;2022-11-02T16:48:24;12.20;99.90
56725;DHT22;42608;52.776;6.968;2022-11-02T16:51:00;12.20;99.90
56725;DHT22;42608;52.776;6.968;2022-11-02T16:53:27;12.10;99.90
56725;DHT22;42608;52.776;6.968;2022-11-02T16:55:56;12.10;99.90
56725;DHT22;42608;52.776;6.968;2022-11-02T16:58:24;12.10;99.90
56725;DHT22;42608;52.776;6.968;2022-11-02T17:00:51;12.00;99.90
56725;DHT22;42608;52.776;6.968;2022-11-02T17:03:17;12.00;99.90
56725;DHT22;42608;52.776;6.968;2022-11-02T17:05:42;11.90;99.90
56725;DHT22;42608;52.776;6.968;2022-11-02T17:08:31;11.90;99.90
56725;DHT22;42608;52.776;6.968;2022-11-02T17:10:58;11.80;99.90
56725;DHT22;42608;52.776;6.968;2022-11-02T17:13:24;11.80;99.90
56725;DHT22;42608;52.776;6.968;2022-11-02T17:15:51;11.80;99.90
56725;DHT22;42608;52.776;6.968;2022-11-02T17:20:44;11.80;99.90
56725;DHT22;42608;52.776;6.968;2022-11-02T17:26:15;11.70;99.90
56725;DHT22;42608;52.776;6.968;2022-11-02T17:28:41;11.60;99.90
56725;DHT22;42608;52.776;6.968;2022-11-02T17:31:23;11.60;99.90
56725;DHT22;42608;52.776;6.968;2022-11-02T17:33:50;11.60;99.90
56725;DHT22;42608;52.776;6.968;2022-11-02T17:36:16;11.50;99.90
56725;DHT22;42608;52.776;6.968;2022-11-02T17:38:42;11.50;99.90
56725;DHT22;42608;52.776;6.968;2022-11-02T17:41:09;11.50;99.90
56725;DHT22;42608;52.776;6.968;2022-11-02T17:43:54;11.50;99.90
56725;DHT22;42608;52.776;6.968;2022-11-02T17:46:20;11.50;99.90
56725;DHT22;42608;52.776;6.968;2022-11-02T17:48:45;11.50;99.90
56725;DHT22;42608;52.776;6.968;2022-11-02T17:51:11;11.50;99.90
56725;DHT22;42608;52.776;6.968;2022-11-02T17:53:37;11.40;99.90
56725;DHT22;42608;52.776;6.968;2022-11-02T17:56:02;11.50;99.90
56725;DHT22;42608;52.776;6.968;2022-11-02T17:58:28;11.40;99.90
56725;DHT22;42608;52.776;6.968;2022-11-02T18:00:54;11.40;99.90
56725;DHT22;42608;52.776;6.968;2022-11-02T18:03:20;11.40;99.90
56725;DHT22;42608;52.776;6.968;2022-11-02T18:05:46;11.40;99.90
56725;DHT22;42608;52.776;6.968;2022-11-02T18:08:11;11.30;99.90
56725;DHT22;42608;52.776;6.968;2022-11-02T18:10:38;11.30;99.90
56725;DHT22;42608;52.776;6.968;2022-11-02T18:13:04;11.30;99.90
56725;DHT22;42608;52.776;6.968;2022-11-02T18:15:30;11.30;99.90
56725;DHT22;42608;52.776;6.968;2022-11-02T18:17:57;11.30;99.90
56725;DHT22;42608;52.776;6.968;2022-11-02T18:20:24;11.20;99.90
56725;DHT22;42608;52.776;6.968;2022-11-02T18:22:54;11.20;99.90
56725;DHT22;42608;52.776;6.968;2022-11-02T18:25:21;11.20;99.90
56725;DHT22;42608;52.776;6.968;2022-11-02T18:27:47;11.20;99.90